Share

Andoya, Norway

Evenes (ENEV) Elev 85 ft | 68.49 °N, 16.68 °E | Change Station

Current weather conditions updated 9 minutes ago

Mostly Cloudy
Mostly Cloudy
37 °F
Feels Like 28 °F
N
17
Wind Variable Wind from SW
Sunrise 4:47 AM
Sunset 9:05 PM
Moon Waning Gibbous

Today is forecast to be nearly the same temperature as yesterday.

Pressure 29.47 in
Visibility 6.2 miles
Clouds Scattered Clouds 1300 ft
Mostly Cloudy 1900 ft
Windchill 28 °F
Dew Point 36 °F
Humidity 93%
Rainfall 0.00 in
Snow Depth Not available.
UV 0 out of 16
Pollen Not available.
Air Quality Not available.
Flu Activity Not available.
METAR ENEV 170050Z AUTO 22015KT 9999NDV SCT013/// BKN019/// 03/02 Q0998 REDZ RMK

More Conditions Fewer Conditions

Pressure 29.47 in
Visibility 6.2 miles
Clouds Scattered Clouds 1300 ft
Mostly Cloudy 1900 ft
Windchill 28 °F
Dew Point 36 °F
Humidity 93%
Rainfall 0.00 in
Snow Depth Not available.
UV 0 out of 16
Pollen Not available.
Air Quality Not available.
Flu Activity Not available.
METAR ENEV 170050Z AUTO 22015KT 9999NDV SCT013/// BKN019/// 03/02 Q0998 REDZ RMK

More Conditions Fewer Conditions

10-Day Forecast

Almanac

Astronomy

Apr. 17, 2014 Rise Set
Actual Time 4:47 AM CEST 9:05 PM CEST
Civil Twilight 3:27 AM CEST 10:27 PM CEST
Nautical Twilight 1:27 AM CEST 12:22 AM CEST
Astronomical Twilight Sun does not rise Sun does not rise
Moon No Moon Rise 5:07 AM CEST
Length of Visible Light 18h 59m
Length of Day
16h 17m
Tomorrow will be 9m 9s longer.
Waning Gibbous, 97% of the Moon is Illuminated
Apr 16
Waning Gibbous
Apr 22
Last Quarter
Apr 29
New
May 6
First Quarter
May 14
Full

Yesterday's Extremes

Country Highs Country Lows

Community

  • symphony in blue....
    symphony in blue....
  • Dawn Surprise
    Dawn Surprise
  • Yucca delight
    Yucca delight
  • Sunset inside of the Ocean
    Sunset inside of the Ocean
  • Lunar eclipse 15 April 2014
    Lunar eclipse 15 April 2014

WunderPhotos

Upload Photos

1,701,768 photos uploaded!

WunderBlogs® & News

Nearby

Snow Depth

Not available.

Coastal Water Temperatures

Place Temperature
No Stations Reporting

Earthquake Activity

City Distance Mag. Time & Date
No recent earthquake activity has been reported nearby.
Minimum magnitude displayed is 2.5.

Nearby Weather Stations

There are no personal weather stations in this area.

What do you think?

We're not finished. Please let us know what you like, what you don't like, and what you are still missing.